Aviation Digital Data Service (ADDS)

Output produced by METARs form (1724 UTC 28 February 2015)
found at http://aviationweather.gov/adds/metars/
 
KRDU 281129Z 2812/0112 05008KT P6SM SCT020 BKN150 
     FM282200 05007KT P6SM FEW020 
     FM010600 06007KT P6SM OVC045